Golden Triangle Regional Airport

Airport
ICAO code: 
KGTR
Summary
ICAO Region: 
NAM
Territory: 
Location: 
Lowndes County, Mississippi,
Elevation: 
264 ft
Coordinates: 
Aerial View: 
33° 27' 1.001" N, 88° 35' 28" W
Metar
Observation
KGTR 040556Z AUTO 20005KT 10SM CLR 13/13 A3006 RMK AO2 SLP188 T01330133 10189 20133 402330067 58003
Station
Columbus/West Point/Starkville, Golden Triangle Regional Airport
Date/Time
2021-12-04 05:56:00
Wind direction
200°
Wind speed
05 kts
Lowest cloud amount
n/a
Temperature
13.3°C
Dew point
13.3°C
Humidity
100%
Weather condition
n/a

Description

Golden Triangle Regional Airport is a public use airport in Lowndes County, Mississippi, United States. The airport is located midway between the cities of Columbus, Starkville, and West Point, Mississippi and serves the area known as the Golden Triangle.

Climatology

Humid “subtropical” climate (Köppen climate classification Cfa) - characterized by hot, humid summers and cool winters. Significant amounts of precipitation occur in all seasons in most areas. Winter rainfall (and sometimes snowfall) is associated with large storms that the westerlies steer from west to east. Most summer rainfall occurs during thunderstorms and occasional tropical storms (hurricanes).

Runways

Designator Length Width Surface Rops
18/36 2439 46 ASP Yes/Yes
Airport map: 
Aerial View: 

SKYbrary Partners:

Safety knowledge contributed by: